Alts de Monte Brisas, Puerto Rico
Current Conditions -  °F | °C
As of 1:09 AM on Friday 31 Oct 2014 (Local Time) from TJNR Reporting Station
Moderate Rain Moderate Rain  
Wind Chill: 26°   Ceiling: 2900
Heat Index: 28°   Visibility: 2mi
Dew Point: 25°   Wind: 6mph
Humidity: 94%   Direction: 240°WSW
Pressure: 29.86"   Gusts: NA
Location:  18.3304°N, 65.6573°W
Report Text: TJNR 310509Z AUTO 24005KT 2SM RA BR FEW022 BKN029 OVC043 26/25 A2986 RMK AO2 P0006 T02610250 $
Loading
Personal Weather Stations






























Interactive Weather Map
Tropical Storm Tracking
New forecast layout! Learn more

10-Day Weather Forecast

Advertisements
Track Severe Weather on mobile